sensor_id;sensor_type;location;lat;lon;timestamp;P1;durP1;ratioP1;P2;durP2;ratioP2
15293;SDS011;7748;52.474;13.454;2022-12-18T00:01:52;35.00;;;14.82;;
15293;SDS011;7748;52.474;13.454;2022-12-18T00:04:25;35.17;;;15.05;;
15293;SDS011;7748;52.474;13.454;2022-12-18T00:06:54;35.53;;;15.23;;
15293;SDS011;7748;52.474;13.454;2022-12-18T00:09:22;36.28;;;15.52;;
15293;SDS011;7748;52.474;13.454;2022-12-18T00:12:04;34.10;;;15.05;;
15293;SDS011;7748;52.474;13.454;2022-12-18T00:14:41;31.48;;;14.82;;
15293;SDS011;7748;52.474;13.454;2022-12-18T00:17:10;38.80;;;14.77;;
15293;SDS011;7748;52.474;13.454;2022-12-18T00:19:38;39.30;;;16.13;;
15293;SDS011;7748;52.474;13.454;2022-12-18T00:22:06;32.30;;;13.48;;
15293;SDS011;7748;52.474;13.454;2022-12-18T00:24:34;37.75;;;14.40;;
15293;SDS011;7748;52.474;13.454;2022-12-18T00:27:02;36.83;;;13.48;;
15293;SDS011;7748;52.474;13.454;2022-12-18T00:29:29;32.83;;;14.15;;
15293;SDS011;7748;52.474;13.454;2022-12-18T00:31:57;33.38;;;14.50;;
15293;SDS011;7748;52.474;13.454;2022-12-18T00:34:27;35.42;;;13.93;;
15293;SDS011;7748;52.474;13.454;2022-12-18T00:36:55;31.00;;;14.07;;
15293;SDS011;7748;52.474;13.454;2022-12-18T00:39:22;34.60;;;15.10;;
15293;SDS011;7748;52.474;13.454;2022-12-18T00:41:50;33.83;;;14.38;;
15293;SDS011;7748;52.474;13.454;2022-12-18T00:44:35;29.80;;;13.88;;
15293;SDS011;7748;52.474;13.454;2022-12-18T00:47:03;38.05;;;13.90;;
15293;SDS011;7748;52.474;13.454;2022-12-18T00:49:32;34.17;;;14.25;;
15293;SDS011;7748;52.474;13.454;2022-12-18T00:52:00;31.10;;;14.10;;
15293;SDS011;7748;52.474;13.454;2022-12-18T00:54:28;33.38;;;14.52;;
15293;SDS011;7748;52.474;13.454;2022-12-18T00:56:56;30.63;;;13.00;;
15293;SDS011;7748;52.474;13.454;2022-12-18T00:59:24;29.00;;;12.65;;
15293;SDS011;7748;52.474;13.454;2022-12-18T01:01:52;33.40;;;13.32;;
15293;SDS011;7748;52.474;13.454;2022-12-18T01:04:20;33.65;;;14.40;;
15293;SDS011;7748;52.474;13.454;2022-12-18T01:06:49;35.08;;;13.55;;
15293;SDS011;7748;52.474;13.454;2022-12-18T01:09:17;31.27;;;14.50;;
15293;SDS011;7748;52.474;13.454;2022-12-18T01:11:45;32.38;;;13.18;;
15293;SDS011;7748;52.474;13.454;2022-12-18T01:14:13;28.45;;;12.85;;
15293;SDS011;7748;52.474;13.454;2022-12-18T01:16:41;36.05;;;13.75;;
15293;SDS011;7748;52.474;13.454;2022-12-18T01:19:09;33.72;;;14.43;;
15293;SDS011;7748;52.474;13.454;2022-12-18T01:21:37;28.40;;;12.63;;
15293;SDS011;7748;52.474;13.454;2022-12-18T01:24:06;40.55;;;15.40;;
15293;SDS011;7748;52.474;13.454;2022-12-18T01:26:34;39.03;;;16.02;;
15293;SDS011;7748;52.474;13.454;2022-12-18T01:29:02;46.85;;;16.90;;
15293;SDS011;7748;52.474;13.454;2022-12-18T01:31:30;50.90;;;19.05;;
15293;SDS011;7748;52.474;13.454;2022-12-18T01:34:00;43.85;;;17.88;;
15293;SDS011;7748;52.474;13.454;2022-12-18T01:36:29;46.65;;;18.70;;
15293;SDS011;7748;52.474;13.454;2022-12-18T01:38:58;55.88;;;19.40;;
15293;SDS011;7748;52.474;13.454;2022-12-18T01:41:29;51.25;;;18.02;;
15293;SDS011;7748;52.474;13.454;2022-12-18T01:47:14;57.72;;;21.10;;
15293;SDS011;7748;52.474;13.454;2022-12-18T01:49:46;49.50;;;19.60;;
15293;SDS011;7748;52.474;13.454;2022-12-18T01:52:14;64.15;;;22.00;;
15293;SDS011;7748;52.474;13.454;2022-12-18T01:54:43;47.00;;;19.80;;
15293;SDS011;7748;52.474;13.454;2022-12-18T01:57:13;61.33;;;20.65;;
15293;SDS011;7748;52.474;13.454;2022-12-18T01:59:41;55.38;;;18.90;;
15293;SDS011;7748;52.474;13.454;2022-12-18T02:02:12;61.67;;;20.92;;
15293;SDS011;7748;52.474;13.454;2022-12-18T02:04:41;61.03;;;22.88;;
15293;SDS011;7748;52.474;13.454;2022-12-18T02:07:16;60.22;;;21.40;;
15293;SDS011;7748;52.474;13.454;2022-12-18T02:09:51;52.90;;;18.80;;
15293;SDS011;7748;52.474;13.454;2022-12-18T02:12:28;66.38;;;22.55;;
15293;SDS011;7748;52.474;13.454;2022-12-18T02:15:06;57.83;;;21.40;;
15293;SDS011;7748;52.474;13.454;2022-12-18T02:17:43;55.38;;;20.38;;
15293;SDS011;7748;52.474;13.454;2022-12-18T02:20:16;52.28;;;19.13;;
15293;SDS011;7748;52.474;13.454;2022-12-18T02:22:54;52.22;;;20.50;;
15293;SDS011;7748;52.474;13.454;2022-12-18T02:28:34;53.28;;;21.52;;
15293;SDS011;7748;52.474;13.454;2022-12-18T02:31:06;51.78;;;21.48;;
15293;SDS011;7748;52.474;13.454;2022-12-18T02:33:38;62.75;;;21.33;;
15293;SDS011;7748;52.474;13.454;2022-12-18T02:36:09;63.40;;;20.50;;
15293;SDS011;7748;52.474;13.454;2022-12-18T02:38:39;50.92;;;21.15;;
15293;SDS011;7748;52.474;13.454;2022-12-18T02:41:08;50.65;;;20.38;;
15293;SDS011;7748;52.474;13.454;2022-12-18T02:43:37;43.67;;;18.45;;
15293;SDS011;7748;52.474;13.454;2022-12-18T02:46:21;47.08;;;19.17;;
15293;SDS011;7748;52.474;13.454;2022-12-18T02:48:54;46.03;;;17.75;;
15293;SDS011;7748;52.474;13.454;2022-12-18T02:51:29;49.10;;;18.60;;
15293;SDS011;7748;52.474;13.454;2022-12-18T02:54:06;50.30;;;18.67;;
15293;SDS011;7748;52.474;13.454;2022-12-18T02:56:45;53.50;;;19.10;;
15293;SDS011;7748;52.474;13.454;2022-12-18T02:59:17;45.17;;;16.58;;
15293;SDS011;7748;52.474;13.454;2022-12-18T03:01:50;45.47;;;18.35;;
15293;SDS011;7748;52.474;13.454;2022-12-18T03:04:25;50.13;;;17.98;;
15293;SDS011;7748;52.474;13.454;2022-12-18T03:06:56;50.83;;;20.33;;
15293;SDS011;7748;52.474;13.454;2022-12-18T03:09:31;42.15;;;17.23;;
15293;SDS011;7748;52.474;13.454;2022-12-18T03:12:04;44.15;;;16.85;;
15293;SDS011;7748;52.474;13.454;2022-12-18T03:14:54;43.60;;;17.38;;
15293;SDS011;7748;52.474;13.454;2022-12-18T03:17:26;45.60;;;16.67;;
15293;SDS011;7748;52.474;13.454;2022-12-18T03:19:58;44.53;;;16.67;;
15293;SDS011;7748;52.474;13.454;2022-12-18T03:22:30;43.47;;;17.58;;
15293;SDS011;7748;52.474;13.454;2022-12-18T03:25:00;37.80;;;15.35;;
15293;SDS011;7748;52.474;13.454;2022-12-18T03:27:33;44.10;;;15.43;;
15293;SDS011;7748;52.474;13.454;2022-12-18T03:30:05;46.55;;;16.67;;
15293;SDS011;7748;52.474;13.454;2022-12-18T03:32:38;37.08;;;15.45;;
15293;SDS011;7748;52.474;13.454;2022-12-18T03:35:10;39.63;;;16.98;;
15293;SDS011;7748;52.474;13.454;2022-12-18T03:37:40;39.58;;;17.35;;
15293;SDS011;7748;52.474;13.454;2022-12-18T03:40:08;39.55;;;15.80;;
15293;SDS011;7748;52.474;13.454;2022-12-18T03:42:39;37.92;;;15.07;;
15293;SDS011;7748;52.474;13.454;2022-12-18T03:45:13;41.72;;;14.48;;
15293;SDS011;7748;52.474;13.454;2022-12-18T03:47:53;42.17;;;16.33;;
15293;SDS011;7748;52.474;13.454;2022-12-18T03:50:32;42.97;;;16.00;;
15293;SDS011;7748;52.474;13.454;2022-12-18T03:53:10;40.53;;;14.40;;
15293;SDS011;7748;52.474;13.454;2022-12-18T03:55:48;32.80;;;13.63;;
15293;SDS011;7748;52.474;13.454;2022-12-18T03:58:20;36.50;;;14.50;;
15293;SDS011;7748;52.474;13.454;2022-12-18T04:00:53;34.00;;;14.23;;
15293;SDS011;7748;52.474;13.454;2022-12-18T04:03:24;37.15;;;15.10;;
15293;SDS011;7748;52.474;13.454;2022-12-18T04:05:54;36.40;;;15.43;;
15293;SDS011;7748;52.474;13.454;2022-12-18T04:08:23;35.17;;;15.35;;
15293;SDS011;7748;52.474;13.454;2022-12-18T04:10:52;32.47;;;15.23;;
15293;SDS011;7748;52.474;13.454;2022-12-18T04:13:27;42.58;;;16.95;;
15293;SDS011;7748;52.474;13.454;2022-12-18T04:15:56;32.70;;;15.27;;
15293;SDS011;7748;52.474;13.454;2022-12-18T04:18:24;42.33;;;14.90;;
15293;SDS011;7748;52.474;13.454;2022-12-18T04:20:52;35.10;;;13.95;;
15293;SDS011;7748;52.474;13.454;2022-12-18T04:23:21;38.03;;;15.02;;
15293;SDS011;7748;52.474;13.454;2022-12-18T04:25:49;27.77;;;13.70;;
15293;SDS011;7748;52.474;13.454;2022-12-18T04:28:16;33.00;;;13.82;;
15293;SDS011;7748;52.474;13.454;2022-12-18T04:30:49;37.58;;;14.93;;
15293;SDS011;7748;52.474;13.454;2022-12-18T04:33:17;31.38;;;13.57;;
15293;SDS011;7748;52.474;13.454;2022-12-18T04:35:45;30.67;;;13.20;;
15293;SDS011;7748;52.474;13.454;2022-12-18T04:38:13;37.05;;;14.35;;
15293;SDS011;7748;52.474;13.454;2022-12-18T04:40:41;31.25;;;13.23;;
15293;SDS011;7748;52.474;13.454;2022-12-18T04:43:10;24.73;;;12.30;;
15293;SDS011;7748;52.474;13.454;2022-12-18T04:45:38;37.35;;;14.43;;
15293;SDS011;7748;52.474;13.454;2022-12-18T04:48:08;30.42;;;13.48;;
15293;SDS011;7748;52.474;13.454;2022-12-18T04:50:36;37.38;;;13.98;;
15293;SDS011;7748;52.474;13.454;2022-12-18T04:53:04;37.53;;;13.18;;
15293;SDS011;7748;52.474;13.454;2022-12-18T04:55:32;32.28;;;13.07;;
15293;SDS011;7748;52.474;13.454;2022-12-18T04:57:59;34.28;;;13.63;;
15293;SDS011;7748;52.474;13.454;2022-12-18T05:00:27;33.38;;;13.75;;
15293;SDS011;7748;52.474;13.454;2022-12-18T05:02:55;29.58;;;12.45;;
15293;SDS011;7748;52.474;13.454;2022-12-18T05:05:24;35.70;;;14.25;;
15293;SDS011;7748;52.474;13.454;2022-12-18T05:07:52;33.05;;;14.00;;
15293;SDS011;7748;52.474;13.454;2022-12-18T05:10:20;36.28;;;14.23;;
15293;SDS011;7748;52.474;13.454;2022-12-18T05:12:48;38.78;;;15.70;;
15293;SDS011;7748;52.474;13.454;2022-12-18T05:15:27;42.40;;;16.35;;
15293;SDS011;7748;52.474;13.454;2022-12-18T05:17:56;34.15;;;14.50;;
15293;SDS011;7748;52.474;13.454;2022-12-18T05:20:27;45.05;;;14.80;;
15293;SDS011;7748;52.474;13.454;2022-12-18T05:22:55;42.67;;;14.93;;
15293;SDS011;7748;52.474;13.454;2022-12-18T05:25:23;44.15;;;16.52;;
15293;SDS011;7748;52.474;13.454;2022-12-18T05:27:51;42.20;;;16.45;;
15293;SDS011;7748;52.474;13.454;2022-12-18T05:30:19;45.55;;;17.23;;
15293;SDS011;7748;52.474;13.454;2022-12-18T05:32:48;54.13;;;17.35;;
15293;SDS011;7748;52.474;13.454;2022-12-18T05:35:16;45.80;;;16.17;;
15293;SDS011;7748;52.474;13.454;2022-12-18T05:37:46;45.85;;;17.73;;
15293;SDS011;7748;52.474;13.454;2022-12-18T05:40:14;54.17;;;17.13;;
15293;SDS011;7748;52.474;13.454;2022-12-18T05:42:41;44.83;;;16.17;;
15293;SDS011;7748;52.474;13.454;2022-12-18T05:45:09;50.05;;;17.65;;
15293;SDS011;7748;52.474;13.454;2022-12-18T05:47:37;40.03;;;16.83;;
15293;SDS011;7748;52.474;13.454;2022-12-18T05:50:06;42.70;;;15.60;;
15293;SDS011;7748;52.474;13.454;2022-12-18T05:52:34;48.92;;;18.13;;
15293;SDS011;7748;52.474;13.454;2022-12-18T05:55:04;52.75;;;18.00;;
15293;SDS011;7748;52.474;13.454;2022-12-18T05:57:32;45.70;;;16.00;;
15293;SDS011;7748;52.474;13.454;2022-12-18T06:00:00;51.42;;;17.42;;
15293;SDS011;7748;52.474;13.454;2022-12-18T06:02:28;45.03;;;17.10;;
15293;SDS011;7748;52.474;13.454;2022-12-18T06:04:56;43.00;;;17.88;;
15293;SDS011;7748;52.474;13.454;2022-12-18T06:07:23;41.80;;;17.73;;
15293;SDS011;7748;52.474;13.454;2022-12-18T06:09:51;41.78;;;18.33;;
15293;SDS011;7748;52.474;13.454;2022-12-18T06:12:20;37.50;;;16.17;;
15293;SDS011;7748;52.474;13.454;2022-12-18T06:14:48;46.65;;;18.70;;
15293;SDS011;7748;52.474;13.454;2022-12-18T06:17:16;49.47;;;18.23;;
15293;SDS011;7748;52.474;13.454;2022-12-18T06:19:44;42.53;;;16.48;;
15293;SDS011;7748;52.474;13.454;2022-12-18T06:22:12;55.30;;;18.73;;
15293;SDS011;7748;52.474;13.454;2022-12-18T06:24:40;44.33;;;18.52;;
15293;SDS011;7748;52.474;13.454;2022-12-18T06:27:08;44.35;;;16.73;;
15293;SDS011;7748;52.474;13.454;2022-12-18T06:29:37;43.70;;;16.70;;
15293;SDS011;7748;52.474;13.454;2022-12-18T06:32:05;43.25;;;17.52;;
15293;SDS011;7748;52.474;13.454;2022-12-18T06:34:33;47.33;;;17.88;;
15293;SDS011;7748;52.474;13.454;2022-12-18T06:37:04;41.65;;;16.38;;
15293;SDS011;7748;52.474;13.454;2022-12-18T06:39:31;43.28;;;16.98;;
15293;SDS011;7748;52.474;13.454;2022-12-18T06:41:59;46.22;;;18.02;;
15293;SDS011;7748;52.474;13.454;2022-12-18T06:44:27;45.50;;;16.30;;
15293;SDS011;7748;52.474;13.454;2022-12-18T06:46:57;45.85;;;18.75;;
15293;SDS011;7748;52.474;13.454;2022-12-18T06:49:24;42.83;;;16.88;;
15293;SDS011;7748;52.474;13.454;2022-12-18T06:51:56;46.67;;;16.52;;
15293;SDS011;7748;52.474;13.454;2022-12-18T06:54:23;42.05;;;15.30;;
15293;SDS011;7748;52.474;13.454;2022-12-18T06:56:51;43.03;;;18.35;;
15293;SDS011;7748;52.474;13.454;2022-12-18T06:59:21;42.22;;;16.60;;
15293;SDS011;7748;52.474;13.454;2022-12-18T07:01:49;39.70;;;15.57;;
15293;SDS011;7748;52.474;13.454;2022-12-18T07:04:19;49.10;;;17.13;;
15293;SDS011;7748;52.474;13.454;2022-12-18T07:06:46;51.17;;;16.75;;
15293;SDS011;7748;52.474;13.454;2022-12-18T07:09:14;40.08;;;15.85;;
15293;SDS011;7748;52.474;13.454;2022-12-18T07:11:42;40.67;;;16.83;;
15293;SDS011;7748;52.474;13.454;2022-12-18T07:14:10;49.10;;;17.15;;
15293;SDS011;7748;52.474;13.454;2022-12-18T07:16:38;41.45;;;18.05;;
15293;SDS011;7748;52.474;13.454;2022-12-18T07:19:07;38.42;;;15.13;;
15293;SDS011;7748;52.474;13.454;2022-12-18T07:21:36;38.95;;;16.58;;
15293;SDS011;7748;52.474;13.454;2022-12-18T07:24:04;44.00;;;15.80;;
15293;SDS011;7748;52.474;13.454;2022-12-18T07:26:33;39.38;;;17.90;;
15293;SDS011;7748;52.474;13.454;2022-12-18T07:29:01;41.38;;;17.10;;
15293;SDS011;7748;52.474;13.454;2022-12-18T07:31:29;53.10;;;18.90;;
15293;SDS011;7748;52.474;13.454;2022-12-18T07:33:57;45.60;;;17.60;;
15293;SDS011;7748;52.474;13.454;2022-12-18T07:36:25;41.70;;;17.67;;
15293;SDS011;7748;52.474;13.454;2022-12-18T07:38:54;39.25;;;15.68;;
15293;SDS011;7748;52.474;13.454;2022-12-18T07:41:22;49.33;;;16.92;;
15293;SDS011;7748;52.474;13.454;2022-12-18T07:43:50;39.90;;;16.50;;
15293;SDS011;7748;52.474;13.454;2022-12-18T07:46:19;43.35;;;18.77;;
15293;SDS011;7748;52.474;13.454;2022-12-18T07:48:47;38.83;;;15.43;;
15293;SDS011;7748;52.474;13.454;2022-12-18T07:51:16;50.08;;;17.58;;
15293;SDS011;7748;52.474;13.454;2022-12-18T07:53:45;43.83;;;16.23;;
15293;SDS011;7748;52.474;13.454;2022-12-18T07:56:19;40.03;;;16.95;;
15293;SDS011;7748;52.474;13.454;2022-12-18T07:58:53;39.33;;;16.48;;
15293;SDS011;7748;52.474;13.454;2022-12-18T08:01:21;43.28;;;17.40;;
15293;SDS011;7748;52.474;13.454;2022-12-18T08:03:50;37.72;;;15.18;;
15293;SDS011;7748;52.474;13.454;2022-12-18T08:06:20;46.47;;;16.70;;
15293;SDS011;7748;52.474;13.454;2022-12-18T08:08:50;36.35;;;15.80;;
15293;SDS011;7748;52.474;13.454;2022-12-18T08:11:20;34.25;;;13.40;;
15293;SDS011;7748;52.474;13.454;2022-12-18T08:13:49;32.90;;;14.27;;
15293;SDS011;7748;52.474;13.454;2022-12-18T08:16:17;35.83;;;14.70;;
15293;SDS011;7748;52.474;13.454;2022-12-18T08:18:46;34.30;;;15.23;;
15293;SDS011;7748;52.474;13.454;2022-12-18T08:21:17;31.42;;;12.73;;
15293;SDS011;7748;52.474;13.454;2022-12-18T08:23:47;36.65;;;14.73;;
15293;SDS011;7748;52.474;13.454;2022-12-18T08:26:19;34.40;;;14.10;;
15293;SDS011;7748;52.474;13.454;2022-12-18T08:28:58;44.53;;;16.05;;
15293;SDS011;7748;52.474;13.454;2022-12-18T08:31:27;39.13;;;16.38;;
15293;SDS011;7748;52.474;13.454;2022-12-18T08:34:00;36.78;;;16.33;;
15293;SDS011;7748;52.474;13.454;2022-12-18T08:36:29;33.03;;;14.52;;
15293;SDS011;7748;52.474;13.454;2022-12-18T08:38:57;28.92;;;12.45;;
15293;SDS011;7748;52.474;13.454;2022-12-18T08:41:27;37.10;;;14.88;;
15293;SDS011;7748;52.474;13.454;2022-12-18T08:43:55;36.22;;;14.18;;
15293;SDS011;7748;52.474;13.454;2022-12-18T08:46:41;33.80;;;14.13;;
15293;SDS011;7748;52.474;13.454;2022-12-18T08:49:11;29.92;;;14.25;;
15293;SDS011;7748;52.474;13.454;2022-12-18T08:51:39;42.45;;;14.57;;
15293;SDS011;7748;52.474;13.454;2022-12-18T08:54:10;37.85;;;14.57;;
15293;SDS011;7748;52.474;13.454;2022-12-18T08:56:41;34.75;;;14.75;;
15293;SDS011;7748;52.474;13.454;2022-12-18T08:59:18;33.72;;;15.93;;
15293;SDS011;7748;52.474;13.454;2022-12-18T09:01:47;36.08;;;15.60;;
15293;SDS011;7748;52.474;13.454;2022-12-18T09:04:15;38.97;;;14.15;;
15293;SDS011;7748;52.474;13.454;2022-12-18T09:06:43;32.70;;;14.43;;
15293;SDS011;7748;52.474;13.454;2022-12-18T09:09:11;44.90;;;16.17;;
15293;SDS011;7748;52.474;13.454;2022-12-18T09:11:41;45.17;;;15.68;;
15293;SDS011;7748;52.474;13.454;2022-12-18T09:14:09;38.53;;;14.98;;
15293;SDS011;7748;52.474;13.454;2022-12-18T09:16:37;38.83;;;16.40;;
15293;SDS011;7748;52.474;13.454;2022-12-18T09:19:05;29.55;;;14.73;;
15293;SDS011;7748;52.474;13.454;2022-12-18T09:21:34;38.65;;;17.38;;
15293;SDS011;7748;52.474;13.454;2022-12-18T09:24:13;35.72;;;15.27;;
15293;SDS011;7748;52.474;13.454;2022-12-18T09:26:43;41.58;;;14.88;;
15293;SDS011;7748;52.474;13.454;2022-12-18T09:29:12;36.90;;;15.15;;
15293;SDS011;7748;52.474;13.454;2022-12-18T09:31:42;38.92;;;15.98;;
15293;SDS011;7748;52.474;13.454;2022-12-18T09:34:10;35.63;;;14.57;;
15293;SDS011;7748;52.474;13.454;2022-12-18T09:36:38;35.97;;;15.27;;
15293;SDS011;7748;52.474;13.454;2022-12-18T09:39:06;33.80;;;14.30;;
15293;SDS011;7748;52.474;13.454;2022-12-18T09:41:37;39.80;;;15.75;;
15293;SDS011;7748;52.474;13.454;2022-12-18T09:44:13;40.00;;;17.55;;
15293;SDS011;7748;52.474;13.454;2022-12-18T09:46:47;40.03;;;16.98;;
15293;SDS011;7748;52.474;13.454;2022-12-18T09:49:22;40.95;;;16.65;;
15293;SDS011;7748;52.474;13.454;2022-12-18T09:51:54;45.00;;;17.05;;
15293;SDS011;7748;52.474;13.454;2022-12-18T09:54:25;44.38;;;15.55;;
15293;SDS011;7748;52.474;13.454;2022-12-18T09:56:59;52.30;;;15.55;;
15293;SDS011;7748;52.474;13.454;2022-12-18T09:59:30;33.85;;;16.13;;
15293;SDS011;7748;52.474;13.454;2022-12-18T10:02:11;35.78;;;15.02;;
15293;SDS011;7748;52.474;13.454;2022-12-18T10:04:42;36.25;;;15.75;;
15293;SDS011;7748;52.474;13.454;2022-12-18T10:07:12;37.00;;;15.90;;
15293;SDS011;7748;52.474;13.454;2022-12-18T10:09:46;43.38;;;18.10;;
15293;SDS011;7748;52.474;13.454;2022-12-18T10:12:23;37.97;;;15.48;;
15293;SDS011;7748;52.474;13.454;2022-12-18T10:14:59;44.40;;;19.00;;
15293;SDS011;7748;52.474;13.454;2022-12-18T10:17:35;38.65;;;16.45;;
15293;SDS011;7748;52.474;13.454;2022-12-18T10:20:10;40.13;;;17.27;;
15293;SDS011;7748;52.474;13.454;2022-12-18T10:22:45;42.55;;;17.63;;
15293;SDS011;7748;52.474;13.454;2022-12-18T10:25:22;38.40;;;15.75;;
15293;SDS011;7748;52.474;13.454;2022-12-18T10:27:53;44.80;;;18.75;;
15293;SDS011;7748;52.474;13.454;2022-12-18T10:30:26;44.22;;;17.60;;
15293;SDS011;7748;52.474;13.454;2022-12-18T10:32:54;38.15;;;16.92;;
15293;SDS011;7748;52.474;13.454;2022-12-18T10:35:30;42.85;;;17.02;;
15293;SDS011;7748;52.474;13.454;2022-12-18T10:38:20;43.47;;;17.52;;
15293;SDS011;7748;52.474;13.454;2022-12-18T10:40:50;44.50;;;19.23;;
15293;SDS011;7748;52.474;13.454;2022-12-18T10:43:20;45.05;;;17.92;;
15293;SDS011;7748;52.474;13.454;2022-12-18T10:46:01;38.55;;;18.02;;
15293;SDS011;7748;52.474;13.454;2022-12-18T10:48:33;42.97;;;17.75;;
15293;SDS011;7748;52.474;13.454;2022-12-18T10:51:07;45.92;;;18.42;;
15293;SDS011;7748;52.474;13.454;2022-12-18T10:53:38;52.58;;;21.65;;
15293;SDS011;7748;52.474;13.454;2022-12-18T10:56:09;41.22;;;18.90;;
15293;SDS011;7748;52.474;13.454;2022-12-18T10:58:38;42.50;;;19.83;;
15293;SDS011;7748;52.474;13.454;2022-12-18T11:01:10;49.13;;;19.67;;
15293;SDS011;7748;52.474;13.454;2022-12-18T11:03:40;45.05;;;18.67;;
15293;SDS011;7748;52.474;13.454;2022-12-18T11:06:10;44.53;;;19.73;;
15293;SDS011;7748;52.474;13.454;2022-12-18T11:08:40;41.72;;;16.77;;
15293;SDS011;7748;52.474;13.454;2022-12-18T11:11:15;37.15;;;17.20;;
15293;SDS011;7748;52.474;13.454;2022-12-18T11:13:58;38.08;;;18.17;;
15293;SDS011;7748;52.474;13.454;2022-12-18T11:16:33;34.55;;;16.13;;
15293;SDS011;7748;52.474;13.454;2022-12-18T11:19:09;40.30;;;17.85;;
15293;SDS011;7748;52.474;13.454;2022-12-18T11:21:46;36.97;;;17.20;;
15293;SDS011;7748;52.474;13.454;2022-12-18T11:24:17;50.42;;;16.60;;
15293;SDS011;7748;52.474;13.454;2022-12-18T11:26:51;37.50;;;15.60;;
15293;SDS011;7748;52.474;13.454;2022-12-18T11:29:28;36.80;;;16.17;;
15293;SDS011;7748;52.474;13.454;2022-12-18T11:35:07;32.88;;;14.73;;
15293;SDS011;7748;52.474;13.454;2022-12-18T11:37:43;33.75;;;14.80;;
15293;SDS011;7748;52.474;13.454;2022-12-18T11:40:20;29.83;;;13.63;;
15293;SDS011;7748;52.474;13.454;2022-12-18T11:42:55;36.58;;;15.05;;
15293;SDS011;7748;52.474;13.454;2022-12-18T11:45:29;36.05;;;14.77;;
15293;SDS011;7748;52.474;13.454;2022-12-18T11:48:05;27.60;;;13.13;;
15293;SDS011;7748;52.474;13.454;2022-12-18T11:50:44;32.65;;;14.48;;
15293;SDS011;7748;52.474;13.454;2022-12-18T11:53:16;38.38;;;16.05;;
15293;SDS011;7748;52.474;13.454;2022-12-18T11:55:50;41.47;;;17.40;;
15293;SDS011;7748;52.474;13.454;2022-12-18T11:58:42;30.35;;;14.15;;
15293;SDS011;7748;52.474;13.454;2022-12-18T12:01:21;28.30;;;14.80;;
15293;SDS011;7748;52.474;13.454;2022-12-18T12:04:20;37.35;;;15.13;;
15293;SDS011;7748;52.474;13.454;2022-12-18T12:07:06;33.88;;;15.23;;
15293;SDS011;7748;52.474;13.454;2022-12-18T12:09:52;27.50;;;13.63;;
15293;SDS011;7748;52.474;13.454;2022-12-18T12:12:31;30.92;;;14.98;;
15293;SDS011;7748;52.474;13.454;2022-12-18T12:15:17;31.23;;;14.25;;
15293;SDS011;7748;52.474;13.454;2022-12-18T12:17:55;32.28;;;15.50;;
15293;SDS011;7748;52.474;13.454;2022-12-18T12:20:41;36.92;;;15.70;;
15293;SDS011;7748;52.474;13.454;2022-12-18T12:23:16;29.98;;;15.55;;
15293;SDS011;7748;52.474;13.454;2022-12-18T12:25:55;33.00;;;14.68;;
15293;SDS011;7748;52.474;13.454;2022-12-18T12:28:34;33.13;;;13.88;;
15293;SDS011;7748;52.474;13.454;2022-12-18T12:31:20;36.20;;;14.98;;
15293;SDS011;7748;52.474;13.454;2022-12-18T12:34:00;29.50;;;13.82;;
15293;SDS011;7748;52.474;13.454;2022-12-18T12:36:39;34.17;;;14.60;;
15293;SDS011;7748;52.474;13.454;2022-12-18T12:39:20;28.58;;;13.23;;
15293;SDS011;7748;52.474;13.454;2022-12-18T12:41:52;33.50;;;16.08;;
15293;SDS011;7748;52.474;13.454;2022-12-18T12:44:40;27.15;;;14.80;;
15293;SDS011;7748;52.474;13.454;2022-12-18T12:47:20;30.00;;;14.25;;
15293;SDS011;7748;52.474;13.454;2022-12-18T12:49:53;34.22;;;16.17;;
15293;SDS011;7748;52.474;13.454;2022-12-18T12:52:27;31.00;;;14.88;;
15293;SDS011;7748;52.474;13.454;2022-12-18T12:55:00;36.40;;;16.40;;
15293;SDS011;7748;52.474;13.454;2022-12-18T12:57:39;29.77;;;15.52;;
15293;SDS011;7748;52.474;13.454;2022-12-18T13:00:15;28.63;;;16.23;;
15293;SDS011;7748;52.474;13.454;2022-12-18T13:02:47;33.47;;;15.00;;
15293;SDS011;7748;52.474;13.454;2022-12-18T13:05:25;28.40;;;15.23;;
15293;SDS011;7748;52.474;13.454;2022-12-18T13:07:59;31.40;;;15.10;;
15293;SDS011;7748;52.474;13.454;2022-12-18T13:10:32;31.50;;;15.52;;
15293;SDS011;7748;52.474;13.454;2022-12-18T13:13:04;35.10;;;17.70;;
15293;SDS011;7748;52.474;13.454;2022-12-18T13:15:39;34.15;;;16.40;;
15293;SDS011;7748;52.474;13.454;2022-12-18T13:18:12;39.03;;;16.73;;
15293;SDS011;7748;52.474;13.454;2022-12-18T13:20:47;35.15;;;16.00;;
15293;SDS011;7748;52.474;13.454;2022-12-18T13:23:29;35.35;;;15.77;;
15293;SDS011;7748;52.474;13.454;2022-12-18T13:28:59;37.63;;;18.17;;
15293;SDS011;7748;52.474;13.454;2022-12-18T13:34:35;31.30;;;16.45;;
15293;SDS011;7748;52.474;13.454;2022-12-18T13:43:26;35.10;;;17.20;;
15293;SDS011;7748;52.474;13.454;2022-12-18T13:48:52;27.48;;;15.07;;
15293;SDS011;7748;52.474;13.454;2022-12-18T13:51:25;28.90;;;13.07;;
15293;SDS011;7748;52.474;13.454;2022-12-18T13:53:58;41.08;;;19.38;;
15293;SDS011;7748;52.474;13.454;2022-12-18T13:56:30;40.33;;;18.05;;
15293;SDS011;7748;52.474;13.454;2022-12-18T13:59:05;39.63;;;17.33;;
15293;SDS011;7748;52.474;13.454;2022-12-18T14:01:41;39.40;;;19.33;;
15293;SDS011;7748;52.474;13.454;2022-12-18T14:04:12;37.08;;;19.58;;
15293;SDS011;7748;52.474;13.454;2022-12-18T14:06:45;39.55;;;20.40;;
15293;SDS011;7748;52.474;13.454;2022-12-18T14:09:14;42.80;;;21.08;;
15293;SDS011;7748;52.474;13.454;2022-12-18T14:11:48;41.03;;;20.90;;
15293;SDS011;7748;52.474;13.454;2022-12-18T14:14:17;43.92;;;22.27;;
15293;SDS011;7748;52.474;13.454;2022-12-18T14:16:49;39.63;;;20.75;;
15293;SDS011;7748;52.474;13.454;2022-12-18T14:19:19;43.08;;;20.52;;
15293;SDS011;7748;52.474;13.454;2022-12-18T14:21:48;32.50;;;19.73;;
15293;SDS011;7748;52.474;13.454;2022-12-18T14:24:18;39.72;;;16.63;;
15293;SDS011;7748;52.474;13.454;2022-12-18T14:26:49;32.75;;;17.63;;
15293;SDS011;7748;52.474;13.454;2022-12-18T14:29:19;32.35;;;18.27;;
15293;SDS011;7748;52.474;13.454;2022-12-18T14:32:06;42.17;;;19.75;;
15293;SDS011;7748;52.474;13.454;2022-12-18T14:34:43;35.90;;;18.27;;
15293;SDS011;7748;52.474;13.454;2022-12-18T14:37:12;36.78;;;18.65;;
15293;SDS011;7748;52.474;13.454;2022-12-18T14:39:40;32.53;;;17.30;;
15293;SDS011;7748;52.474;13.454;2022-12-18T14:42:24;52.45;;;30.55;;
15293;SDS011;7748;52.474;13.454;2022-12-18T14:48:07;34.03;;;16.33;;
15293;SDS011;7748;52.474;13.454;2022-12-18T14:50:41;34.65;;;16.90;;
15293;SDS011;7748;52.474;13.454;2022-12-18T14:53:18;32.30;;;17.75;;
15293;SDS011;7748;52.474;13.454;2022-12-18T14:55:50;29.73;;;15.43;;
15293;SDS011;7748;52.474;13.454;2022-12-18T14:58:20;31.15;;;15.18;;
15293;SDS011;7748;52.474;13.454;2022-12-18T15:00:49;29.60;;;15.85;;
15293;SDS011;7748;52.474;13.454;2022-12-18T15:03:18;33.70;;;16.58;;
15293;SDS011;7748;52.474;13.454;2022-12-18T15:05:48;31.85;;;17.55;;
15293;SDS011;7748;52.474;13.454;2022-12-18T15:08:31;32.55;;;17.38;;
15293;SDS011;7748;52.474;13.454;2022-12-18T15:11:23;34.58;;;17.45;;
15293;SDS011;7748;52.474;13.454;2022-12-18T15:13:56;29.20;;;15.43;;
15293;SDS011;7748;52.474;13.454;2022-12-18T15:16:25;31.40;;;16.38;;